Aérodrome :
LOGIN :

S'inscrire | Disclaimer

   EN    FR    IT 

 










Légende :    VFR   VFR Marginal   IFR   IFR Intensif   IFR Très Intensif
Visi : 
Plafond : 
>= 8 km
>= 3000ft
5 à 8 km
1000 à 3000 ft
1500m à 5 km
500 à 1000 ft
800 à 1500m
200 à 500 ft
< 800m
< 200 ft
Symboles :   Orages  Brouillard  Fortes neiges  Fortes précipitations  Vent > 20 kt
SIGMETs :   Divers  Orages  Givrage  Turbulence  Onde Orograph.  Cendres Volcan.







- Altitude de l'aérodrome : 697 ft
- Code IATA : PEG


LIRZ - San Edigio Perugia

DERNIER METAR :
  • 301150Z 01008KT 9999 FEW070 18/05 Q1013

METARs EXPIRÉS :
  • 301050Z 02011KT 9999 FEW060 17/03 Q1014
  • 300950Z 02013KT 9999 SCT070 16/04 Q1014

TAF TAF LIRZ
Valide du 30 à 12h jusqu'au 01 à 12h UTC


301100Z 3012/0112 04014KT CAVOK 04010KT
BECMG 3016/3019 VRB05KT
Pas de NOTAMs connus pour ce terrain.



MET'MAP, la Météo Aéronautique d'un coup d'oeil ! - Copyright ORBIFLY Décembre 2007 - Disclaimer

ORBIFLY MET'MAP TEAM :

Programmation & Développement : Alexandra Zaïnal
Conception & Développement : Baudouin d'Aumeries
Co-Programmation & Développement : Marc-Olivier Méhu
Soutien technique & logistique : Manuel Goepfert

Contact : metmap@orbifly.com




SOURCES & CREDITS :

   NOAA